Time;durP1;ratioP1;P1;durP2;ratioP2;P2;SDS_P1;SDS_P2;PMS_P1;PMS_P2;Temp;Humidity;BMP_temperature;BMP_pressure;BME280_temperature;BME280_humidity;BME280_pressure;Samples;Min_cycle;Max_cycle;Signal;HPM_P1;HPM_P2
2023/09/01 00:01:15;;;;;;;6.55;2.85;;;;;;;13.74;100.00;93878.31;5087185;28;20046;-62
2023/09/01 00:03:42;;;;;;;6.60;2.80;;;;;;;13.77;100.00;93880.22;5090048;28;20044;-62
2023/09/01 00:06:14;;;;;;;5.25;2.78;;;;;;;13.76;100.00;93889.69;5089660;28;20610;-62
2023/09/01 00:08:41;;;;;;;5.15;2.80;;;;;;;13.74;100.00;93889.34;5088650;28;20788;-62
2023/09/01 00:11:08;;;;;;;5.57;3.00;;;;;;;13.68;100.00;93891.09;5089815;28;20048;-62
2023/09/01 00:13:35;;;;;;;6.15;2.92;;;;;;;13.72;100.00;93881.53;5089304;28;20444;-62
2023/09/01 00:16:02;;;;;;;5.40;2.75;;;;;;;13.64;100.00;93885.66;5076699;28;20052;-62
2023/09/01 00:18:30;;;;;;;6.32;2.72;;;;;;;13.66;100.00;93883.28;5088972;28;20052;-62
2023/09/01 00:20:58;;;;;;;6.50;2.90;;;;;;;13.55;100.00;93878.03;5089564;28;20048;-61
2023/09/01 00:23:25;;;;;;;5.43;2.70;;;;;;;13.59;100.00;93881.47;5088870;28;20052;-62
2023/09/01 00:25:55;;;;;;;5.50;2.75;;;;;;;13.56;100.00;93878.81;5082688;28;20044;-61
2023/09/01 00:28:23;;;;;;;4.88;2.70;;;;;;;13.46;100.00;93880.66;5068860;28;20416;-62
2023/09/01 00:30:58;;;;;;;5.32;2.63;;;;;;;13.48;100.00;93880.22;5069319;28;20528;-62
2023/09/01 00:33:27;;;;;;;5.10;2.50;;;;;;;13.55;100.00;93883.56;5068979;28;20041;-62
2023/09/01 00:35:55;;;;;;;5.93;2.70;;;;;;;13.57;100.00;93877.59;5070730;28;20488;-62
2023/09/01 00:38:24;;;;;;;6.22;2.60;;;;;;;13.47;100.00;93887.72;5089134;28;20388;-62
2023/09/01 00:40:52;;;;;;;4.85;2.50;;;;;;;13.46;100.00;93875.16;5088873;28;20036;-62
2023/09/01 00:43:19;;;;;;;6.07;2.75;;;;;;;13.53;100.00;93877.69;5088703;28;20051;-62
2023/09/01 00:45:46;;;;;;;5.30;2.60;;;;;;;13.54;100.00;93868.22;5088867;28;20040;-62
2023/09/01 00:48:14;;;;;;;5.97;2.80;;;;;;;13.51;100.00;93880.13;5086494;28;20047;-62
2023/09/01 00:50:42;;;;;;;5.18;2.50;;;;;;;13.58;100.00;93877.19;5076599;28;20082;-61
2023/09/01 00:53:09;;;;;;;5.65;2.58;;;;;;;13.55;100.00;93877.28;5089413;28;20046;-62
2023/09/01 00:55:37;;;;;;;5.85;2.80;;;;;;;13.52;100.00;93884.44;5088570;28;20522;-62
2023/09/01 00:58:04;;;;;;;6.32;3.05;;;;;;;13.55;100.00;93877.28;5088317;28;20419;-62
2023/09/01 01:00:32;;;;;;;6.43;2.83;;;;;;;13.49;100.00;93874.25;5088334;28;20112;-62
2023/09/01 01:03:02;;;;;;;5.60;3.03;;;;;;;13.49;100.00;93870.75;5088886;28;20515;-62
2023/09/01 01:05:50;;;;;;;6.07;2.80;;;;;;;13.42;100.00;93874.47;5088388;28;20043;-62
2023/09/01 01:08:55;;;;;;;5.78;2.70;;;;;;;13.48;100.00;93860.91;5068013;28;20045;-62
2023/09/01 01:11:56;;;;;;;5.38;3.05;;;;;;;13.28;100.00;93855.50;5073305;28;20047;-62
2023/09/01 01:14:30;;;;;;;4.43;2.77;;;;;;;13.36;100.00;93854.94;5077110;28;20040;-61
2023/09/01 01:16:58;;;;;;;6.47;2.50;;;;;;;13.38;100.00;93852.50;5089064;28;20458;-62
2023/09/01 01:19:54;;;;;;;4.70;2.80;;;;;;;13.30;100.00;93855.88;5087920;28;20412;-62
2023/09/01 01:22:49;;;;;;;5.65;2.67;;;;;;;13.35;100.00;93858.13;5088505;28;20044;-62
2023/09/01 01:25:16;;;;;;;5.43;2.83;;;;;;;13.31;100.00;93852.69;5088511;28;20048;-61
2023/09/01 01:27:43;;;;;;;4.90;2.80;;;;;;;13.35;100.00;93872.66;5088641;28;20044;-61
2023/09/01 01:30:13;;;;;;;5.00;3.10;;;;;;;13.39;100.00;93869.81;5088808;28;20040;-62
2023/09/01 01:32:44;;;;;;;6.18;3.00;;;;;;;13.43;100.00;93878.75;5086109;28;20856;-62
2023/09/01 01:35:34;;;;;;;5.28;2.97;;;;;;;13.37;100.00;93869.47;5088502;28;20054;-61
2023/09/01 01:38:18;;;;;;;7.88;3.50;;;;;;;12.90;100.00;93867.91;5087844;28;20074;-61
2023/09/01 01:40:49;;;;;;;4.80;2.90;;;;;;;12.96;100.00;93870.91;5087826;28;20515;-62
2023/09/01 01:43:21;;;;;;;6.47;3.13;;;;;;;13.16;100.00;93868.03;5087889;28;20653;-62
2023/09/01 01:45:49;;;;;;;6.82;3.20;;;;;;;13.14;100.00;93862.97;5081265;28;20048;-61
2023/09/01 01:48:16;;;;;;;5.07;2.80;;;;;;;13.18;100.00;93860.88;5081765;28;20040;-62
2023/09/01 01:50:44;;;;;;;6.32;3.08;;;;;;;13.12;100.00;93864.59;5084747;28;20037;-62
2023/09/01 01:53:13;;;;;;;5.57;3.00;;;;;;;13.16;100.00;93877.06;5050122;28;20056;-62
2023/09/01 01:55:39;;;;;;;13.25;8.07;;;;;;;13.25;100.00;93876.44;5050535;28;20085;-62
2023/09/01 01:58:12;;;;;;;7.75;3.97;;;;;;;13.06;100.00;93875.38;5079627;28;20500;-63
2023/09/01 02:00:39;;;;;;;6.32;3.05;;;;;;;13.14;100.00;93875.97;5087404;28;20596;-63
2023/09/01 02:03:06;;;;;;;5.35;3.15;;;;;;;13.19;100.00;93876.19;5088350;28;20044;-62
2023/09/01 02:05:32;;;;;;;5.87;2.93;;;;;;;13.20;100.00;93871.47;5071341;28;20051;-62
2023/09/01 02:08:03;;;;;;;7.18;3.30;;;;;;;13.28;100.00;93874.81;5085807;28;20052;-61
2023/09/01 02:10:37;;;;;;;5.78;3.10;;;;;;;13.24;100.00;93874.13;5081346;28;20346;-64
2023/09/01 02:13:04;;;;;;;6.40;3.08;;;;;;;13.31;100.00;93871.97;5054374;28;20135;-61
2023/09/01 02:15:31;;;;;;;5.28;3.10;;;;;;;13.37;100.00;93878.50;5081151;28;20300;-63
2023/09/01 02:17:59;;;;;;;5.67;3.10;;;;;;;13.42;100.00;93881.94;5091708;28;20047;-63
2023/09/01 02:20:38;;;;;;;5.53;3.03;;;;;;;13.41;100.00;93885.94;5090848;28;20050;-63
2023/09/01 02:23:16;;;;;;;6.20;3.30;;;;;;;13.39;100.00;93881.59;5077297;28;20043;-61
2023/09/01 02:25:44;;;;;;;6.05;3.00;;;;;;;13.42;100.00;93891.00;5090363;28;20403;-61
2023/09/01 02:28:11;;;;;;;5.30;3.03;;;;;;;13.47;100.00;93887.72;5085144;28;20496;-60
2023/09/01 02:30:39;;;;;;;6.40;3.43;;;;;;;12.82;100.00;93883.06;5066656;28;20036;-60
2023/09/01 02:33:06;;;;;;;6.55;3.10;;;;;;;13.19;100.00;93889.97;5089182;28;20066;-60
2023/09/01 02:35:44;;;;;;;5.93;3.45;;;;;;;13.33;100.00;93890.84;5061439;28;20051;-62
2023/09/01 02:38:14;;;;;;;8.05;3.40;;;;;;;13.39;100.00;93897.38;5069788;28;20037;-62
2023/09/01 02:40:41;;;;;;;7.28;3.30;;;;;;;13.48;100.00;93894.00;5088203;28;20050;-62
2023/09/01 02:43:09;;;;;;;5.67;3.40;;;;;;;13.50;100.00;93897.88;5079086;28;20428;-62
2023/09/01 02:45:35;;;;;;;5.97;3.28;;;;;;;13.51;100.00;93893.13;5055956;28;20045;-62
2023/09/01 02:48:02;;;;;;;5.72;3.33;;;;;;;13.48;100.00;93894.00;5084375;28;20050;-61
2023/09/01 02:50:30;;;;;;;6.93;3.28;;;;;;;13.49;100.00;93898.31;5090578;28;20400;-61
2023/09/01 02:52:56;;;;;;;5.07;3.10;;;;;;;13.46;100.00;93897.22;5091389;28;20052;-61
2023/09/01 02:55:23;;;;;;;6.27;3.13;;;;;;;13.46;100.00;93899.97;5086867;28;20048;-61
2023/09/01 02:57:50;;;;;;;5.00;3.00;;;;;;;13.40;100.00;93898.94;5059392;28;20050;-61
2023/09/01 03:00:21;;;;;;;42.92;24.13;;;;;;;13.44;100.00;93901.59;5074443;28;20085;-61
2023/09/01 03:02:50;;;;;;;5.97;3.50;;;;;;;13.41;100.00;93896.97;5069656;28;20049;-62
2023/09/01 03:05:23;;;;;;;7.30;3.38;;;;;;;13.41;100.00;93894.97;5087514;28;20036;-63
2023/09/01 03:07:52;;;;;;;7.13;3.27;;;;;;;13.43;100.00;93902.81;5069002;28;20049;-62
2023/09/01 03:10:19;;;;;;;6.60;3.08;;;;;;;13.43;100.00;93900.06;5082231;28;20040;-63
2023/09/01 03:12:47;;;;;;;6.25;2.70;;;;;;;13.35;100.00;93894.72;5090677;28;20036;-62
2023/09/01 03:15:15;;;;;;;4.40;2.65;;;;;;;13.35;100.00;93899.47;5090445;28;20040;-63
2023/09/01 03:17:42;;;;;;;6.07;3.00;;;;;;;13.31;100.00;93894.03;5090238;28;20712;-62
2023/09/01 03:20:18;;;;;;;4.40;2.77;;;;;;;13.22;100.00;93890.31;5041956;28;20052;-62
2023/09/01 03:22:45;;;;;;;5.32;2.70;;;;;;;12.88;100.00;93895.09;5047540;28;20521;-61
2023/09/01 03:25:12;;;;;;;5.25;2.72;;;;;;;12.94;100.00;93892.59;5049991;28;20047;-62
2023/09/01 03:27:39;;;;;;;6.78;2.72;;;;;;;12.89;100.00;93893.88;5065722;28;20052;-60
2023/09/01 03:30:07;;;;;;;6.57;3.00;;;;;;;12.85;100.00;93906.97;5070151;28;20052;-60
2023/09/01 03:32:34;;;;;;;6.57;3.00;;;;;;;12.89;100.00;93902.13;5064588;28;20036;-60
2023/09/01 03:35:01;;;;;;;5.75;3.00;;;;;;;12.87;100.00;93903.78;5070457;28;20037;-60
2023/09/01 03:37:28;;;;;;;5.50;2.88;;;;;;;12.78;100.00;93904.41;5069834;28;20129;-60
2023/09/01 03:39:54;;;;;;;7.60;3.05;;;;;;;12.73;100.00;93910.41;5055851;28;20043;-60
2023/09/01 03:42:21;;;;;;;4.90;3.30;;;;;;;12.71;100.00;93901.78;5069724;28;20039;-60
2023/09/01 03:44:48;;;;;;;5.20;2.60;;;;;;;12.72;100.00;93898.63;5070282;28;20687;-60
2023/09/01 03:47:15;;;;;;;5.00;2.70;;;;;;;12.75;100.00;93896.97;5065894;28;20535;-60
2023/09/01 03:49:41;;;;;;;5.30;2.90;;;;;;;12.80;100.00;93899.22;5060348;28;20051;-60
2023/09/01 03:52:08;;;;;;;5.40;2.60;;;;;;;12.65;100.00;93906.28;5069855;28;20037;-60
2023/09/01 03:54:35;;;;;;;5.13;2.60;;;;;;;12.65;100.00;93906.28;5056116;28;20047;-61
2023/09/01 03:57:01;;;;;;;22.90;13.93;;;;;;;12.72;100.00;93906.13;5069936;28;20037;-61
2023/09/01 03:59:28;;;;;;;6.88;3.42;;;;;;;12.66;100.00;93905.09;5064454;28;20048;-61
2023/09/01 04:01:55;;;;;;;6.53;2.75;;;;;;;12.58;100.00;93905.22;5061916;28;20045;-60
2023/09/01 04:04:22;;;;;;;7.90;2.85;;;;;;;12.58;100.00;93905.22;5065131;28;20055;-60
2023/09/01 04:06:49;;;;;;;6.22;3.10;;;;;;;12.55;100.00;93902.56;5060543;28;20055;-60
2023/09/01 04:09:15;;;;;;;6.73;3.63;;;;;;;12.50;100.00;93901.09;5069282;28;20046;-61
2023/09/01 04:11:42;;;;;;;6.80;3.92;;;;;;;12.42;100.00;93902.47;5056767;28;20066;-61
2023/09/01 04:14:10;;;;;;;7.25;3.50;;;;;;;12.46;100.00;93907.91;5068214;28;20044;-61
2023/09/01 04:16:40;;;;;;;5.57;3.13;;;;;;;12.55;100.00;93908.84;5068585;28;20150;-61
2023/09/01 04:19:07;;;;;;;5.65;3.45;;;;;;;12.66;100.00;93918.84;5069552;28;20094;-61
2023/09/01 04:21:34;;;;;;;7.23;3.07;;;;;;;12.70;100.00;93909.28;5068974;28;20036;-61
2023/09/01 04:24:01;;;;;;;4.60;2.65;;;;;;;12.75;100.00;93911.50;5069554;28;20067;-60
2023/09/01 04:26:28;;;;;;;6.35;2.90;;;;;;;12.68;100.00;93908.19;5063943;28;20371;-61
2023/09/01 04:28:54;;;;;;;6.85;2.97;;;;;;;12.78;100.00;93912.66;5066639;28;20045;-60
2023/09/01 04:31:28;;;;;;;5.32;2.83;;;;;;;12.85;100.00;93912.47;5067302;28;20046;-60
2023/09/01 04:33:56;;;;;;;4.20;2.27;;;;;;;12.76;100.00;93904.81;5066758;28;20041;-61
2023/09/01 04:36:26;;;;;;;5.90;2.40;;;;;;;12.86;100.00;93905.78;5068655;28;20036;-60
2023/09/01 04:39:07;;;;;;;5.03;2.70;;;;;;;12.86;100.00;93899.47;5068981;28;20055;-61
2023/09/01 04:41:33;;;;;;;4.60;2.42;;;;;;;12.95;100.00;93902.41;5068924;28;20047;-61
2023/09/01 04:44:00;;;;;;;3.97;2.17;;;;;;;12.91;100.00;93907.22;5068595;28;20051;-61
2023/09/01 04:46:27;;;;;;;7.83;2.80;;;;;;;12.88;100.00;93902.59;5057475;28;20033;-61
2023/09/01 04:48:53;;;;;;;8.60;2.80;;;;;;;12.95;100.00;93905.16;5066751;28;20049;-61
2023/09/01 04:51:21;;;;;;;4.82;2.60;;;;;;;12.98;100.00;93898.78;5061105;28;20040;-61
2023/09/01 04:53:49;;;;;;;4.75;2.20;;;;;;;13.03;100.00;93897.50;5063715;28;20062;-61
2023/09/01 04:56:15;;;;;;;5.32;2.53;;;;;;;13.08;100.00;93906.03;5068698;28;20505;-61
2023/09/01 04:58:42;;;;;;;4.67;2.07;;;;;;;13.14;100.00;93903.53;5069130;28;20051;-62
2023/09/01 05:01:09;;;;;;;5.32;2.15;;;;;;;13.17;100.00;93903.41;5055599;28;20079;-61
2023/09/01 05:03:37;;;;;;;4.57;2.00;;;;;;;13.12;100.00;93900.41;5068760;28;20041;-61
2023/09/01 05:06:05;;;;;;;4.63;2.80;;;;;;;13.13;100.00;93899.97;5068520;28;20098;-61
2023/09/01 05:08:32;;;;;;;4.75;2.97;;;;;;;12.99;100.00;93897.56;5068206;28;20052;-61
2023/09/01 05:10:58;;;;;;;7.90;3.30;;;;;;;12.78;100.00;93896.91;5068729;28;20052;-61
2023/09/01 05:13:26;;;;;;;7.95;3.60;;;;;;;12.79;100.00;93901.19;5068402;28;20045;-61
2023/09/01 05:15:53;;;;;;;6.47;2.97;;;;;;;12.93;100.00;93900.06;5067966;28;20036;-61
2023/09/01 05:18:20;;;;;;;7.38;2.80;;;;;;;12.99;100.00;93906.59;5055953;28;20056;-61
2023/09/01 05:20:48;;;;;;;6.97;3.25;;;;;;;12.94;100.00;93909.13;5082027;28;20369;-62
2023/09/01 05:23:15;;;;;;;8.73;3.40;;;;;;;13.03;100.00;93914.78;5081831;28;20104;-61
2023/09/01 05:25:42;;;;;;;5.45;3.20;;;;;;;13.07;100.00;93907.22;5082283;28;20044;-61
2023/09/01 05:28:08;;;;;;;5.45;3.38;;;;;;;13.10;100.00;93911.88;5088568;28;20055;-61
2023/09/01 05:30:36;;;;;;;5.38;3.10;;;;;;;13.14;100.00;93911.78;5088296;28;20112;-62
2023/09/01 05:33:04;;;;;;;7.72;3.50;;;;;;;13.21;100.00;93906.09;5087578;28;20052;-61
2023/09/01 05:35:30;;;;;;;7.53;3.60;;;;;;;13.21;100.00;93913.59;5074423;28;20048;-61
2023/09/01 05:37:57;;;;;;;6.72;3.45;;;;;;;13.30;100.00;93911.00;5074890;28;20069;-60
2023/09/01 05:40:24;;;;;;;8.00;3.70;;;;;;;13.36;100.00;93918.31;5087672;28;20048;-61
2023/09/01 05:42:51;;;;;;;6.30;3.47;;;;;;;13.47;100.00;93920.03;5088504;28;20050;-60
2023/09/01 05:45:18;;;;;;;9.15;3.33;;;;;;;13.49;100.00;93915.63;5090624;28;20048;-60
2023/09/01 05:47:44;;;;;;;7.07;3.60;;;;;;;13.51;100.00;93918.72;5090471;28;20056;-60
2023/09/01 05:50:11;;;;;;;7.15;4.00;;;;;;;13.70;100.00;93927.28;5091114;28;20498;-61
2023/09/01 05:52:38;;;;;;;7.55;3.95;;;;;;;13.72;100.00;93924.84;5092109;28;20044;-61
2023/09/01 05:55:05;;;;;;;6.80;4.20;;;;;;;13.69;100.00;93923.00;5089006;28;20390;-60
2023/09/01 05:57:32;;;;;;;5.32;3.25;;;;;;;13.65;100.00;93928.59;5086342;28;20044;-60
2023/09/01 05:59:59;;;;;;;4.83;2.87;;;;;;;13.77;100.00;93929.84;5078605;28;20048;-60
2023/09/01 06:02:26;;;;;;;6.13;3.30;;;;;;;13.88;100.00;93929.56;5091425;28;20545;-61
2023/09/01 06:04:52;;;;;;;6.45;3.95;;;;;;;13.83;100.00;93930.09;5092113;28;20397;-60
2023/09/01 06:07:19;;;;;;;7.25;3.70;;;;;;;13.88;100.00;93924.81;5091312;28;20040;-60
2023/09/01 06:09:46;;;;;;;5.95;3.42;;;;;;;13.62;100.00;93929.44;5091893;28;20040;-61
2023/09/01 06:12:14;;;;;;;5.73;3.40;;;;;;;13.80;100.00;93934.50;5090481;28;20048;-62
2023/09/01 06:14:41;;;;;;;6.78;3.28;;;;;;;14.02;100.00;93929.16;5083626;28;20040;-61
2023/09/01 06:17:11;;;;;;;5.03;3.00;;;;;;;14.33;100.00;93934.97;5083307;28;20044;-61
2023/09/01 06:19:37;;;;;;;5.80;3.50;;;;;;;14.33;100.00;93931.44;5072644;28;20184;-62
2023/09/01 06:22:04;;;;;;;6.88;3.80;;;;;;;14.29;100.00;93928.00;5091707;28;20044;-62
2023/09/01 06:24:31;;;;;;;6.70;3.73;;;;;;;14.55;100.00;93937.09;5091351;28;20048;-62
2023/09/01 06:26:57;;;;;;;7.03;3.75;;;;;;;14.77;100.00;93935.25;5091738;28;20043;-62
2023/09/01 06:29:24;;;;;;;6.40;3.08;;;;;;;14.78;100.00;93933.25;5082321;28;20044;-63
2023/09/01 06:31:51;;;;;;;6.47;2.97;;;;;;;14.80;100.00;93935.59;5086887;28;20036;-62
2023/09/01 06:34:17;;;;;;;4.95;3.10;;;;;;;14.97;100.00;93934.25;5091174;28;20044;-62
2023/09/01 06:36:44;;;;;;;6.73;3.40;;;;;;;15.16;100.00;93933.22;5078328;28;20049;-63
2023/09/01 06:39:11;;;;;;;6.28;3.00;;;;;;;15.31;100.00;93938.28;5091253;28;20040;-63
2023/09/01 06:41:38;;;;;;;4.90;3.00;;;;;;;15.93;100.00;93941.31;5091693;28;20476;-65
2023/09/01 06:44:04;;;;;;;4.95;3.05;;;;;;;16.39;100.00;93943.63;5091149;28;20409;-64
2023/09/01 06:46:31;;;;;;;6.75;3.03;;;;;;;17.14;100.00;93937.22;5091034;28;20449;-63
2023/09/01 06:48:58;;;;;;;6.30;3.17;;;;;;;17.81;100.00;93935.63;5087721;28;20054;-60
2023/09/01 06:51:24;;;;;;;8.38;3.63;;;;;;;18.58;100.00;93936.66;5086524;28;20408;-60
2023/09/01 06:53:51;;;;;;;7.05;3.55;;;;;;;19.27;100.00;93937.81;5088177;28;20047;-60
2023/09/01 06:56:18;;;;;;;5.75;3.00;;;;;;;19.47;100.00;93937.25;5088009;28;20091;-60
2023/09/01 06:58:45;;;;;;;5.78;2.97;;;;;;;19.98;100.00;93932.72;5090083;28;20051;-61
2023/09/01 07:01:12;;;;;;;9.07;3.40;;;;;;;19.92;100.00;93933.41;5076988;28;20048;-60
2023/09/01 07:03:39;;;;;;;7.25;3.95;;;;;;;20.33;100.00;93936.44;5090528;28;20415;-61
2023/09/01 07:06:06;;;;;;;5.68;3.45;;;;;;;21.86;100.00;93931.22;5088572;28;20428;-61
2023/09/01 07:08:33;;;;;;;6.38;3.10;;;;;;;22.52;100.00;93935.28;5087105;28;20045;-61
2023/09/01 07:11:04;;;;;;;4.65;3.03;;;;;;;22.24;100.00;93926.63;5081579;28;20044;-61
2023/09/01 07:13:31;;;;;;;4.90;2.13;;;;;;;23.15;100.00;93939.41;5090749;28;20044;-61
2023/09/01 07:15:58;;;;;;;2.95;1.58;;;;;;;22.60;100.00;93935.63;5090877;28;20422;-61
2023/09/01 07:18:25;;;;;;;3.60;1.50;;;;;;;21.31;100.00;93932.75;5076743;28;20382;-62
2023/09/01 07:20:58;;;;;;;3.05;1.60;;;;;;;21.91;100.00;93930.53;5090051;28;20443;-60
2023/09/01 07:23:25;;;;;;;4.25;1.50;;;;;;;21.75;100.00;93933.88;5090163;28;20043;-60
2023/09/01 07:25:53;;;;;;;4.80;1.50;;;;;;;21.93;100.00;93936.41;5080026;28;20414;-61
2023/09/01 07:28:21;;;;;;;2.70;1.58;;;;;;;23.33;100.00;93936.25;5084631;28;20051;-61
2023/09/01 07:30:48;;;;;;;4.93;1.60;;;;;;;21.91;100.00;93932.53;5080034;28;20046;-61
2023/09/01 07:33:16;;;;;;;4.22;1.88;;;;;;;21.01;100.00;93940.41;5089498;28;20057;-60
2023/09/01 07:35:47;;;;;;;3.75;1.60;;;;;;;20.81;100.00;93932.75;5090574;28;20043;-61
2023/09/01 07:38:15;;;;;;;3.63;1.63;;;;;;;21.07;100.00;93934.94;5089870;28;20066;-61
2023/09/01 07:40:43;;;;;;;3.13;1.50;;;;;;;20.66;100.00;93940.34;5090345;28;20643;-61
2023/09/01 07:43:11;;;;;;;3.00;1.50;;;;;;;21.59;100.00;93931.63;5090431;28;20044;-60
2023/09/01 07:45:39;;;;;;;3.47;1.40;;;;;;;20.74;100.00;93935.91;5085129;28;21175;-60
2023/09/01 07:48:06;;;;;;;5.63;1.55;;;;;;;20.83;100.00;93933.03;5081833;28;20048;-61
2023/09/01 07:50:48;;;;;;;3.20;1.60;;;;;;;21.52;100.00;93933.56;5089270;28;20738;-61
2023/09/01 07:53:15;;;;;;;5.07;1.63;;;;;;;21.13;100.00;93947.72;5089715;28;20435;-61
2023/09/01 07:55:42;;;;;;;6.00;1.58;;;;;;;21.27;100.00;93950.94;5089889;28;20054;-60
2023/09/01 07:58:09;;;;;;;3.30;1.65;;;;;;;20.92;100.00;93955.22;5090128;28;20071;-60
2023/09/01 08:00:37;;;;;;;5.93;1.58;;;;;;;20.47;100.00;93960.00;5075681;28;20097;-60
2023/09/01 08:03:10;;;;;;;5.17;1.80;;;;;;;20.55;100.00;93958.38;5090143;28;20048;-61
2023/09/01 08:05:37;;;;;;;6.45;2.90;;;;;;;20.93;100.00;93967.94;5084919;28;20850;-61
2023/09/01 08:08:05;;;;;;;4.60;2.15;;;;;;;23.06;100.00;93959.19;5080400;28;20052;-61
2023/09/01 08:10:32;;;;;;;5.00;2.00;;;;;;;25.55;92.47;93972.13;5089097;28;20488;-61
2023/09/01 08:12:59;;;;;;;3.63;1.80;;;;;;;25.39;87.59;93970.88;5083278;28;20044;-61
2023/09/01 08:15:26;;;;;;;3.13;1.57;;;;;;;25.49;85.90;93969.31;5081182;28;20048;-61
2023/09/01 08:17:53;;;;;;;3.47;1.73;;;;;;;25.08;86.14;93969.81;5053077;28;20040;-61
2023/09/01 08:20:20;;;;;;;3.17;1.60;;;;;;;24.60;88.99;93970.78;5088752;28;20054;-60
2023/09/01 08:22:46;;;;;;;3.53;1.45;;;;;;;22.98;94.47;93977.66;5058233;28;20044;-60
2023/09/01 08:25:13;;;;;;;3.42;1.55;;;;;;;22.51;100.00;93972.13;5076301;28;20044;-61
2023/09/01 08:27:40;;;;;;;4.47;1.77;;;;;;;24.51;94.29;93968.97;5089426;28;20066;-60
2023/09/01 08:30:07;;;;;;;3.65;1.60;;;;;;;22.97;96.22;93968.50;5075437;28;20056;-61
2023/09/01 08:32:34;;;;;;;2.88;1.40;;;;;;;23.75;92.22;93973.19;5089048;28;20052;-60
2023/09/01 08:35:03;;;;;;;3.00;1.40;;;;;;;25.99;77.07;93964.91;5084509;28;20378;-61
2023/09/01 08:37:30;;;;;;;5.05;1.60;;;;;;;26.95;74.69;93961.66;5080280;28;20048;-61
2023/09/01 08:39:57;;;;;;;2.90;1.30;;;;;;;26.99;68.73;93968.53;5087385;28;20040;-61
2023/09/01 08:42:25;;;;;;;3.30;1.38;;;;;;;24.12;84.54;93961.16;5068956;28;20044;-60
2023/09/01 08:44:52;;;;;;;3.60;1.58;;;;;;;25.05;80.90;93962.41;5088910;28;20058;-60
2023/09/01 08:47:23;;;;;;;3.95;1.20;;;;;;;23.67;86.00;93975.66;5075016;28;20038;-60
2023/09/01 08:49:50;;;;;;;2.80;1.48;;;;;;;23.38;89.22;93968.38;5089436;28;20384;-61
2023/09/01 08:52:20;;;;;;;3.40;1.30;;;;;;;24.40;83.27;93966.09;5088833;28;20378;-60
2023/09/01 08:54:47;;;;;;;3.72;1.30;;;;;;;24.40;83.95;93966.09;5086174;28;20408;-61
2023/09/01 08:57:15;;;;;;;3.80;1.60;;;;;;;25.49;80.16;93955.28;5077861;28;20528;-61
2023/09/01 08:59:42;;;;;;;3.05;1.25;;;;;;;26.82;71.72;93953.78;5088950;28;20048;-61
2023/09/01 09:02:09;;;;;;;3.08;1.17;;;;;;;25.43;74.56;93949.66;5075546;28;20048;-61
2023/09/01 09:04:36;;;;;;;3.57;1.30;;;;;;;27.66;66.96;93960.84;5088083;28;21946;-61
2023/09/01 09:07:18;;;;;;;2.47;1.17;;;;;;;24.72;77.98;93964.66;5084062;28;20053;-61
2023/09/01 09:09:56;;;;;;;2.80;1.35;;;;;;;25.50;77.19;93960.38;5081747;28;21397;-61
2023/09/01 09:12:33;;;;;;;3.47;1.27;;;;;;;25.21;73.75;93969.31;5088485;28;20040;-60
2023/09/01 09:15:00;;;;;;;2.85;1.40;;;;;;;24.37;81.17;93958.69;5088847;28;20052;-61
2023/09/01 09:17:44;;;;;;;3.13;1.50;;;;;;;24.51;83.62;93972.53;5057737;28;20547;-61
2023/09/01 09:20:14;;;;;;;3.50;1.40;;;;;;;24.01;88.70;93975.88;5077496;28;20200;-61
2023/09/01 09:22:55;;;;;;;4.15;1.50;;;;;;;23.78;90.81;93974.22;5093104;28;20032;-61
2023/09/01 09:25:28;;;;;;;3.80;1.38;;;;;;;23.10;93.49;93977.31;5090279;28;20044;-61
2023/09/01 09:27:59;;;;;;;6.90;1.70;;;;;;;22.64;92.88;93978.13;5082905;28;20161;-61
2023/09/01 09:30:27;;;;;;;2.70;1.40;;;;;;;23.16;93.99;93976.56;5092314;28;20040;-61
2023/09/01 09:33:04;;;;;;;3.75;1.52;;;;;;;23.65;93.10;93981.00;5083756;28;20375;-61
2023/09/01 09:35:47;;;;;;;3.28;1.38;;;;;;;24.08;89.93;93969.03;5089564;28;20101;-61
2023/09/01 09:38:14;;;;;;;3.72;1.60;;;;;;;23.86;89.79;93983.69;5092077;28;20294;-61
2023/09/01 09:40:41;;;;;;;2.78;1.25;;;;;;;24.26;87.63;93979.81;5090641;28;20097;-61
2023/09/01 09:43:09;;;;;;;3.97;1.50;;;;;;;23.01;90.41;93976.69;5092678;28;20051;-61
2023/09/01 09:45:38;;;;;;;3.15;1.60;;;;;;;23.95;88.78;93969.50;5088146;28;20503;-61
2023/09/01 09:48:06;;;;;;;2.97;1.30;;;;;;;22.56;92.49;93976.25;5083728;28;20044;-61
2023/09/01 09:50:34;;;;;;;3.20;1.40;;;;;;;22.93;93.23;93967.97;5092170;28;20105;-61
2023/09/01 09:53:04;;;;;;;2.25;1.10;;;;;;;23.30;91.19;93970.84;5089005;28;20090;-61
2023/09/01 09:55:52;;;;;;;2.67;1.20;;;;;;;22.99;93.71;93979.22;5071684;28;20040;-61
2023/09/01 09:58:31;;;;;;;2.80;1.30;;;;;;;24.22;87.19;93968.06;5090307;28;20278;-61
2023/09/01 10:01:02;;;;;;;2.83;1.80;;;;;;;23.99;87.03;93960.84;5092170;28;20100;-61
2023/09/01 10:03:30;;;;;;;2.85;1.05;;;;;;;22.78;90.09;93965.28;5091417;28;20051;-61
2023/09/01 10:05:58;;;;;;;2.65;1.10;;;;;;;22.29;97.65;93967.81;5092150;28;20052;-61
2023/09/01 10:08:26;;;;;;;2.80;1.27;;;;;;;22.43;95.96;93966.19;5077891;28;20403;-61
2023/09/01 10:10:57;;;;;;;2.78;1.10;;;;;;;22.64;95.30;93963.38;5092284;28;20077;-61
2023/09/01 10:13:24;;;;;;;2.75;1.00;;;;;;;22.65;95.71;93971.25;5091065;28;20038;-61
2023/09/01 10:15:51;;;;;;;2.70;1.30;;;;;;;22.42;97.91;93970.28;5091998;28;20044;-61
2023/09/01 10:18:20;;;;;;;3.08;1.30;;;;;;;22.53;95.55;93978.00;5090999;28;20050;-61
2023/09/01 10:20:47;;;;;;;3.00;1.20;;;;;;;22.56;97.38;93968.63;5091818;28;20387;-61
2023/09/01 10:23:14;;;;;;;2.63;1.30;;;;;;;22.64;96.19;93977.38;5091610;28;20048;-60
2023/09/01 10:25:41;;;;;;;3.05;1.10;;;;;;;22.32;99.62;93974.47;5091461;28;20090;-61
2023/09/01 10:28:12;;;;;;;2.20;1.20;;;;;;;22.03;100.00;93978.91;5091953;28;20070;-61
2023/09/01 10:30:41;;;;;;;3.13;1.10;;;;;;;22.27;98.64;93980.75;5090654;28;20420;-61
2023/09/01 10:33:14;;;;;;;2.53;1.23;;;;;;;22.59;96.89;93973.22;5078221;28;20044;-61
2023/09/01 10:35:48;;;;;;;3.00;1.27;;;;;;;23.43;92.83;93966.88;5090705;28;20254;-61
2023/09/01 10:38:19;;;;;;;3.03;1.20;;;;;;;22.89;94.61;93973.78;5090596;28;20036;-61
2023/09/01 10:40:48;;;;;;;3.10;1.27;;;;;;;22.79;96.07;93971.66;5091718;28;20495;-61
2023/09/01 10:43:33;;;;;;;3.55;1.48;;;;;;;22.53;95.35;93964.03;5090385;28;20052;-61
2023/09/01 10:46:12;;;;;;;2.63;1.20;;;;;;;22.76;95.98;93962.22;5090993;28;20048;-61
2023/09/01 10:48:59;;;;;;;3.75;1.40;;;;;;;22.01;100.00;93972.28;5090877;28;20754;-61
2023/09/01 10:51:30;;;;;;;2.50;1.25;;;;;;;22.45;100.00;93969.28;5090387;28;20440;-61
2023/09/01 10:54:00;;;;;;;3.47;1.48;;;;;;;22.83;96.52;93963.81;5080863;28;20044;-61
2023/09/01 10:56:29;;;;;;;3.30;1.30;;;;;;;23.06;96.23;93953.59;5088239;28;20051;-61
2023/09/01 10:58:57;;;;;;;2.50;1.20;;;;;;;23.69;92.52;93955.56;5091448;28;20066;-61
2023/09/01 11:01:37;;;;;;;3.15;1.40;;;;;;;23.06;95.82;93959.19;5090684;28;20404;-61
2023/09/01 11:04:13;;;;;;;2.50;1.10;;;;;;;22.67;100.00;93962.38;5091288;28;20113;-61
2023/09/01 11:06:59;;;;;;;3.33;1.52;;;;;;;23.30;95.43;93956.06;5075119;28;20392;-61
2023/09/01 11:09:35;;;;;;;2.95;1.55;;;;;;;23.12;94.29;93966.38;5089842;28;20048;-61
2023/09/01 11:12:06;;;;;;;2.70;1.30;;;;;;;23.51;92.42;93959.53;5090719;28;20040;-61
2023/09/01 11:14:37;;;;;;;2.60;1.30;;;;;;;24.39;90.25;93958.94;5089945;28;20036;-61
2023/09/01 11:17:04;;;;;;;2.70;1.50;;;;;;;24.61;86.46;93952.66;5090918;28;20044;-61
2023/09/01 11:19:46;;;;;;;2.92;1.40;;;;;;;24.29;90.30;93956.38;5088736;28;20411;-61
2023/09/01 11:22:14;;;;;;;2.85;1.50;;;;;;;23.97;88.67;93952.94;5080387;28;20044;-61
2023/09/01 11:24:45;;;;;;;3.73;1.40;;;;;;;23.67;88.68;93946.91;5090560;28;20059;-61
2023/09/01 11:27:12;;;;;;;3.65;1.50;;;;;;;23.11;91.53;93950.84;5084332;28;20044;-60
2023/09/01 11:29:39;;;;;;;3.35;1.50;;;;;;;23.34;90.88;93948.19;5058931;28;20036;-61
2023/09/01 11:32:06;;;;;;;2.97;1.40;;;;;;;23.72;89.85;93946.94;5069043;28;20382;-61
2023/09/01 11:34:38;;;;;;;2.70;1.20;;;;;;;24.29;87.61;93928.34;5084979;28;20046;-61
2023/09/01 11:37:05;;;;;;;2.87;1.30;;;;;;;23.96;85.65;93928.22;5090778;28;20059;-61